createdAt,value
2023-05-23T06:46:25.719Z,4.30
2023-05-23T06:49:02.646Z,4.20
2023-05-23T06:51:40.915Z,3.70
2023-05-23T06:54:09.804Z,4.10
2023-05-23T06:56:37.942Z,4.40
2023-05-23T06:59:05.242Z,3.80
2023-05-23T07:01:34.306Z,3.80
2023-05-23T07:04:01.399Z,3.60
2023-05-23T07:06:28.632Z,3.20
2023-05-23T07:08:55.595Z,3.50
2023-05-23T07:11:22.644Z,3.30
2023-05-23T07:13:53.863Z,3.40
2023-05-23T07:16:26.976Z,2.60
2023-05-23T07:19:02.589Z,3.20
2023-05-23T07:21:30.665Z,3.00
2023-05-23T07:23:57.433Z,2.60
2023-05-23T07:26:24.672Z,3.00
2023-05-23T07:28:54.795Z,3.40
2023-05-23T07:31:22.680Z,2.90
2023-05-23T07:33:55.719Z,3.30
2023-05-23T07:36:27.184Z,2.90
2023-05-23T07:38:54.332Z,2.70
2023-05-23T07:41:21.699Z,2.70
2023-05-23T07:43:48.971Z,2.80
2023-05-23T07:46:16.796Z,2.90
2023-05-23T07:48:44.610Z,3.30
2023-05-23T07:51:12.660Z,2.90
2023-05-23T07:53:40.300Z,3.00
2023-05-23T07:56:11.140Z,3.50
2023-05-23T07:58:39.321Z,3.00
2023-05-23T08:01:06.368Z,3.00
2023-05-23T08:03:52.006Z,3.10
2023-05-23T08:06:23.901Z,3.40
2023-05-23T08:08:51.355Z,3.20
2023-05-23T08:11:18.124Z,3.30
2023-05-23T08:13:49.048Z,2.90
2023-05-23T08:16:48.807Z,2.90
2023-05-23T08:19:19.302Z,3.40
2023-05-23T08:21:46.737Z,2.70
2023-05-23T08:24:14.911Z,2.70
2023-05-23T08:26:43.052Z,3.00
2023-05-23T08:29:11.362Z,2.90
2023-05-23T08:31:38.526Z,2.90
2023-05-23T08:34:06.585Z,3.00
2023-05-23T08:36:36.087Z,2.70
2023-05-23T08:39:03.442Z,2.80
2023-05-23T08:41:35.322Z,2.60
2023-05-23T08:44:04.635Z,2.50
2023-05-23T08:46:39.366Z,3.20
2023-05-23T08:49:06.478Z,2.30
2023-05-23T08:51:33.604Z,2.70
2023-05-23T08:54:01.943Z,2.30
2023-05-23T08:56:29.766Z,2.70
2023-05-23T08:58:57.860Z,2.80
2023-05-23T09:01:25.036Z,2.90
2023-05-23T09:03:52.879Z,2.70
2023-05-23T09:06:34.271Z,2.50
2023-05-23T09:09:01.138Z,2.60
2023-05-23T09:11:28.531Z,2.70
2023-05-23T09:13:57.114Z,2.90
2023-05-23T09:16:23.872Z,2.80
2023-05-23T09:18:56.105Z,3.10
2023-05-23T09:21:23.881Z,3.00
2023-05-23T09:23:56.095Z,3.10
2023-05-23T09:26:22.980Z,2.80
2023-05-23T09:28:50.214Z,2.90
2023-05-23T09:31:16.989Z,3.00
2023-05-23T09:33:49.420Z,3.60
2023-05-23T09:36:17.924Z,2.70
2023-05-23T09:38:45.843Z,3.50
2023-05-23T09:41:13.248Z,2.70
2023-05-23T09:43:49.408Z,3.00
2023-05-23T09:46:16.175Z,2.90
2023-05-23T09:48:51.653Z,2.80
2023-05-23T09:51:20.726Z,3.10
2023-05-23T09:53:47.813Z,3.20
2023-05-23T09:56:16.315Z,3.00
2023-05-23T09:58:52.256Z,2.90
2023-05-23T10:01:18.940Z,2.60
2023-05-23T10:03:50.413Z,3.20
2023-05-23T10:06:32.073Z,2.70
2023-05-23T10:09:03.496Z,3.00
2023-05-23T10:11:36.052Z,2.80
2023-05-23T10:14:07.109Z,3.30
2023-05-23T10:16:39.321Z,3.30
2023-05-23T10:19:09.635Z,3.20
2023-05-23T10:21:40.464Z,2.90
2023-05-23T10:24:07.341Z,2.90
2023-05-23T10:26:34.086Z,2.70
2023-05-23T10:29:01.131Z,3.20
2023-05-23T10:31:28.590Z,2.90
2023-05-23T10:34:19.193Z,3.20
2023-05-23T10:36:55.819Z,2.90
2023-05-23T10:39:43.823Z,3.30
2023-05-23T10:42:17.563Z,3.00
2023-05-23T10:44:44.200Z,3.00
2023-05-23T10:47:12.343Z,3.00
2023-05-23T10:49:43.134Z,3.70
2023-05-23T10:52:12.769Z,3.30
2023-05-23T10:54:43.885Z,3.40
2023-05-23T10:57:12.208Z,2.80
2023-05-23T10:59:39.333Z,2.60
2023-05-23T11:02:13.936Z,3.00
2023-05-23T11:04:40.736Z,2.90
2023-05-23T11:07:37.676Z,3.00
2023-05-23T11:10:09.136Z,3.20
2023-05-23T11:12:43.206Z,3.00
2023-05-23T11:15:16.186Z,3.10
2023-05-23T11:17:53.756Z,3.40
2023-05-23T11:20:27.853Z,3.10
2023-05-23T11:23:07.014Z,3.20
2023-05-23T11:25:44.472Z,3.40
2023-05-23T11:28:12.106Z,3.40
2023-05-23T11:30:39.408Z,2.90
2023-05-23T11:33:15.762Z,3.10
2023-05-23T11:35:47.231Z,3.00
2023-05-23T11:38:14.643Z,2.90
2023-05-23T11:40:42.903Z,3.10
2023-05-23T11:43:14.946Z,3.20
2023-05-23T11:45:42.181Z,3.50
2023-05-23T11:48:09.289Z,3.10
2023-05-23T11:51:00.502Z,3.20
2023-05-23T11:53:27.316Z,2.80
2023-05-23T11:55:55.329Z,3.40
2023-05-23T11:58:22.426Z,3.40
2023-05-23T12:00:49.166Z,3.70
2023-05-23T12:03:16.065Z,3.50
2023-05-23T12:05:44.467Z,3.30
2023-05-23T12:08:13.225Z,3.10
2023-05-23T12:10:49.314Z,2.90
2023-05-23T12:13:16.696Z,2.90
2023-05-23T12:15:43.892Z,3.10
2023-05-23T12:18:10.942Z,3.40
2023-05-23T12:20:37.530Z,3.00
2023-05-23T12:23:05.494Z,3.40
2023-05-23T12:25:42.263Z,3.20
2023-05-23T12:28:12.982Z,3.30
2023-05-23T12:30:43.107Z,3.50
2023-05-23T12:33:11.217Z,2.70
2023-05-23T12:35:42.464Z,3.40
2023-05-23T12:38:09.705Z,3.10
2023-05-23T12:40:36.667Z,2.80
2023-05-23T12:43:03.502Z,3.00
2023-05-23T12:45:32.408Z,2.90
2023-05-23T12:47:59.891Z,3.50
2023-05-23T12:50:26.810Z,4.30
2023-05-23T12:52:53.823Z,2.90
2023-05-23T12:55:20.528Z,3.60
2023-05-23T12:57:47.602Z,3.40
2023-05-23T13:00:14.559Z,3.10
2023-05-23T13:02:41.670Z,3.40
2023-05-23T13:09:59.139Z,2.90
2023-05-23T13:12:25.906Z,3.50
2023-05-23T13:14:52.712Z,3.60
2023-05-23T13:17:19.458Z,3.70
2023-05-23T13:19:46.506Z,3.70
2023-05-23T13:22:13.163Z,3.20
2023-05-23T13:24:40.224Z,2.90
2023-05-23T13:27:07.097Z,3.20
2023-05-23T13:29:33.881Z,2.80
2023-05-23T13:32:00.874Z,2.80
2023-05-23T13:34:28.187Z,3.10
2023-05-23T13:36:56.816Z,3.40
2023-05-23T13:39:24.017Z,3.30
2023-05-23T13:41:51.097Z,2.90
2023-05-23T13:44:18.910Z,3.10
2023-05-23T13:46:45.674Z,3.10
2023-05-23T13:49:13.028Z,2.80
2023-05-23T13:51:39.703Z,2.90
2023-05-23T13:54:06.557Z,3.30
2023-05-23T13:56:34.726Z,2.80
2023-05-23T13:59:01.687Z,3.00
2023-05-23T14:01:28.943Z,3.10
2023-05-23T14:03:55.944Z,2.60
2023-05-23T14:06:22.725Z,3.00
2023-05-23T14:08:49.494Z,3.00
2023-05-23T14:11:16.769Z,3.20
2023-05-23T14:13:43.706Z,3.20
2023-05-23T14:16:10.497Z,2.90
2023-05-23T14:18:37.309Z,2.90
2023-05-23T14:21:04.041Z,2.90
2023-05-23T14:23:31.341Z,3.30
2023-05-23T14:25:58.173Z,3.20
2023-05-23T14:28:24.836Z,3.10
2023-05-23T14:30:51.652Z,2.80
2023-05-23T14:33:19.410Z,2.70
2023-05-23T14:35:48.694Z,2.80
2023-05-23T14:38:18.195Z,2.80
2023-05-23T14:40:48.320Z,2.90
2023-05-23T14:43:19.031Z,2.70
2023-05-23T14:45:48.521Z,2.90
2023-05-23T14:48:17.990Z,2.80
2023-05-23T14:50:46.154Z,3.20
2023-05-23T14:53:16.582Z,3.20
2023-05-23T14:55:45.654Z,2.60
2023-05-23T14:58:14.416Z,3.10
2023-05-23T15:00:46.628Z,2.60
2023-05-23T15:03:15.655Z,3.20
2023-05-23T15:05:48.207Z,3.30
2023-05-23T15:08:18.650Z,2.90
2023-05-23T15:10:48.021Z,3.20
2023-05-23T15:13:18.603Z,3.80
2023-05-23T15:15:48.697Z,3.80
2023-05-23T15:18:27.940Z,3.70
2023-05-23T15:21:05.294Z,3.50
2023-05-23T15:23:34.525Z,3.60
2023-05-23T15:26:03.671Z,3.70
2023-05-23T15:28:34.666Z,3.80
2023-05-23T15:31:03.612Z,3.40
2023-05-23T15:33:32.616Z,3.70
2023-05-23T15:42:19.516Z,2.90
2023-05-23T15:44:46.322Z,3.50
2023-05-23T15:47:12.957Z,3.30
2023-05-23T15:49:39.983Z,3.30
2023-05-23T15:52:06.723Z,3.60
2023-05-23T15:54:33.671Z,3.30
2023-05-23T15:57:01.026Z,3.20
2023-05-23T15:59:27.581Z,3.20
2023-05-23T16:01:54.256Z,3.00
2023-05-23T16:04:22.847Z,3.10
2023-05-23T16:06:50.231Z,2.60
2023-05-23T16:09:17.093Z,3.00
2023-05-23T16:11:44.017Z,3.20
2023-05-23T16:14:10.767Z,3.90
2023-05-23T16:16:37.779Z,3.50
2023-05-23T16:19:04.870Z,3.00
2023-05-23T16:21:32.107Z,3.30
2023-05-23T16:23:58.848Z,3.20
2023-05-23T16:26:26.411Z,3.60
2023-05-23T16:28:53.552Z,3.60
2023-05-23T16:31:28.021Z,3.30
2023-05-23T16:33:55.033Z,2.90
2023-05-23T16:36:22.784Z,3.10
2023-05-23T16:38:49.625Z,3.10
2023-05-23T16:41:16.373Z,3.30
2023-05-23T16:43:43.127Z,3.00
2023-05-23T16:46:10.234Z,3.30
2023-05-23T16:48:37.226Z,3.00
2023-05-23T16:51:04.148Z,2.60
2023-05-23T16:53:30.818Z,3.10
2023-05-23T16:55:59.980Z,3.00
2023-05-23T16:58:26.643Z,2.80
2023-05-23T17:00:56.032Z,3.10
2023-05-23T17:03:23.886Z,2.80
2023-05-23T17:05:50.937Z,2.90
2023-05-23T17:08:17.816Z,2.70
2023-05-23T17:10:44.638Z,2.90
2023-05-23T17:13:11.780Z,2.70
2023-05-23T17:15:38.595Z,2.80
2023-05-23T17:18:05.650Z,3.00
2023-05-23T17:20:33.212Z,3.00
2023-05-23T17:23:00.067Z,2.80
2023-05-23T17:25:27.098Z,3.00
2023-05-23T17:27:55.304Z,3.10
2023-05-23T17:30:22.215Z,2.60
2023-05-23T17:32:49.215Z,2.80
2023-05-23T17:35:15.935Z,2.60
2023-05-23T17:37:44.312Z,2.80
2023-05-23T17:40:11.615Z,2.70
2023-05-23T17:42:39.813Z,2.80
2023-05-23T17:45:08.832Z,3.20
2023-05-23T17:47:35.781Z,3.00
2023-05-23T17:50:04.027Z,3.00
2023-05-23T17:52:32.055Z,3.00
2023-05-23T17:54:58.971Z,3.20
2023-05-23T17:57:29.558Z,2.80
2023-05-23T17:59:57.136Z,3.10
2023-05-23T18:02:24.107Z,3.20
2023-05-23T18:04:51.225Z,3.30
2023-05-23T18:07:18.491Z,3.50
2023-05-23T18:09:46.645Z,3.20
2023-05-23T18:12:14.188Z,3.10
2023-05-23T18:14:41.863Z,3.00
2023-05-23T18:17:09.385Z,3.80
2023-05-23T18:19:38.599Z,3.70
2023-05-23T18:22:07.301Z,3.80
2023-05-23T18:24:34.259Z,4.30
2023-05-23T18:27:02.402Z,4.00
2023-05-23T18:29:29.704Z,3.80
2023-05-23T18:31:56.360Z,3.30
2023-05-23T18:34:23.159Z,4.60
2023-05-23T18:36:50.096Z,3.60
2023-05-23T18:39:18.394Z,3.80
2023-05-23T18:41:46.140Z,4.20
2023-05-23T18:44:18.645Z,4.20
2023-05-23T18:46:47.367Z,4.70
2023-05-23T18:49:14.144Z,4.00
2023-05-23T18:51:44.186Z,4.30
2023-05-23T18:54:11.009Z,4.90
2023-05-23T18:56:37.851Z,4.90
2023-05-23T18:59:04.698Z,5.50
2023-05-23T19:01:31.532Z,5.40
2023-05-23T19:03:58.708Z,4.90
2023-05-23T19:06:27.260Z,4.80
2023-05-23T19:08:53.950Z,5.00
2023-05-23T19:11:21.457Z,4.90
2023-05-23T19:13:48.130Z,5.20
2023-05-23T19:16:16.762Z,5.00
2023-05-23T19:18:43.934Z,4.90
2023-05-23T19:21:10.776Z,4.80
2023-05-23T19:23:37.641Z,5.10
2023-05-23T19:26:04.475Z,5.30
2023-05-23T19:28:31.704Z,5.30
2023-05-23T19:30:58.369Z,5.30
2023-05-23T19:33:25.085Z,5.40
2023-05-23T19:35:52.682Z,5.40
2023-05-23T19:38:20.713Z,5.60
2023-05-23T19:40:47.799Z,5.20
2023-05-23T19:43:14.736Z,5.00
2023-05-23T19:45:41.603Z,4.90
2023-05-23T19:48:08.339Z,5.20
2023-05-23T19:50:35.087Z,4.70
2023-05-23T19:53:01.948Z,5.10
2023-05-23T19:55:29.029Z,4.50
2023-05-23T19:57:55.776Z,4.80
2023-05-23T20:00:22.686Z,5.00
2023-05-23T20:02:50.213Z,5.10
2023-05-23T20:05:17.201Z,4.90
2023-05-23T20:07:44.407Z,4.40
2023-05-23T20:10:11.383Z,4.90
2023-05-23T20:12:38.165Z,5.00
2023-05-23T20:15:05.670Z,5.10
2023-05-23T20:17:32.690Z,4.90
2023-05-23T20:19:59.293Z,4.80
2023-05-23T20:22:26.432Z,4.90
2023-05-23T20:24:53.169Z,4.80
2023-05-23T20:27:20.322Z,5.30
2023-05-23T20:29:47.190Z,5.40
2023-05-23T20:32:13.908Z,5.20
2023-05-23T20:34:41.270Z,5.10
2023-05-23T20:37:08.102Z,5.10
2023-05-23T20:39:37.094Z,5.40
2023-05-23T20:42:05.164Z,5.60
2023-05-23T20:44:32.316Z,5.80
2023-05-23T20:47:00.374Z,5.50
2023-05-23T20:49:27.127Z,5.70
2023-05-23T20:51:53.884Z,6.00
2023-05-23T20:54:20.603Z,5.70
2023-05-23T20:56:47.884Z,5.50
2023-05-23T20:59:15.927Z,5.20
2023-05-23T21:01:42.689Z,5.70
2023-05-23T21:04:09.658Z,5.20
2023-05-23T21:06:37.898Z,5.80
2023-05-23T21:09:04.639Z,6.10
2023-05-23T21:11:33.517Z,5.60
2023-05-23T21:14:00.476Z,6.10
2023-05-23T21:16:31.893Z,5.90
2023-05-23T21:19:00.130Z,6.00
2023-05-23T21:21:27.031Z,6.20
2023-05-23T21:23:53.771Z,6.30
2023-05-23T21:26:20.607Z,6.10
2023-05-23T21:28:48.228Z,5.90
2023-05-23T21:31:16.375Z,5.60
2023-05-23T21:33:46.865Z,5.00
2023-05-23T21:36:13.509Z,6.00
2023-05-23T21:38:40.276Z,4.70
2023-05-23T21:41:07.235Z,4.60
2023-05-23T21:43:34.035Z,4.20
2023-05-23T21:46:00.694Z,4.60
2023-05-23T21:48:27.397Z,4.70
2023-05-23T21:50:54.083Z,4.90
2023-05-23T21:53:22.147Z,4.50
2023-05-23T21:55:49.065Z,4.10
2023-05-23T21:58:15.958Z,4.80
2023-05-23T22:00:45.481Z,4.50
2023-05-23T22:03:12.179Z,4.70
2023-05-23T22:05:40.026Z,4.60
2023-05-23T22:08:07.320Z,4.40
2023-05-23T22:10:37.354Z,4.50
2023-05-23T22:13:04.223Z,5.00
2023-05-23T22:15:31.988Z,5.40
2023-05-23T22:17:59.025Z,5.20
2023-05-23T22:20:27.428Z,5.20
2023-05-23T22:22:54.149Z,5.30
2023-05-23T22:25:22.540Z,5.40
2023-05-23T22:27:49.424Z,5.20
2023-05-23T22:30:16.532Z,4.90
2023-05-23T22:32:43.424Z,5.30
2023-05-23T22:35:10.593Z,5.20
2023-05-23T22:37:37.590Z,5.30
2023-05-23T22:40:05.547Z,5.20
2023-05-23T22:42:32.625Z,5.80
2023-05-23T22:45:01.737Z,5.60
2023-05-23T22:47:28.978Z,5.50
2023-05-23T22:50:00.286Z,5.10
2023-05-23T22:52:27.946Z,5.20
2023-05-23T22:54:54.701Z,5.60
2023-05-23T22:57:21.627Z,5.30
2023-05-23T22:59:48.290Z,5.00
2023-05-23T23:02:15.325Z,5.50
2023-05-23T23:04:43.813Z,5.80
2023-05-23T23:07:10.918Z,5.30
2023-05-23T23:09:38.832Z,5.30
2023-05-23T23:12:05.883Z,5.60
2023-05-23T23:14:32.526Z,5.60
2023-05-23T23:16:59.272Z,5.30
2023-05-23T23:19:29.145Z,5.20
2023-05-23T23:21:56.120Z,5.60
2023-05-23T23:24:22.701Z,5.00
2023-05-23T23:26:49.297Z,5.20
2023-05-23T23:29:15.862Z,4.80
2023-05-23T23:31:42.606Z,5.40
2023-05-23T23:34:09.087Z,4.50
2023-05-23T23:36:39.076Z,4.90
2023-05-23T23:39:05.860Z,5.00
2023-05-23T23:41:32.950Z,4.80
2023-05-23T23:43:59.429Z,5.50
2023-05-23T23:46:26.296Z,5.30
2023-05-23T23:48:55.605Z,4.70
2023-05-23T23:51:22.214Z,4.80
2023-05-23T23:53:50.904Z,5.00
2023-05-23T23:56:19.345Z,4.90
2023-05-23T23:58:45.912Z,5.10
